createdAt,value
2017-06-14T04:46:12.786Z,72.28
2017-06-14T04:46:38.262Z,72.28
2017-06-14T04:47:03.737Z,72.31
2017-06-14T04:47:29.200Z,71.99
2017-06-14T04:47:54.677Z,71.64
2017-06-14T04:48:20.146Z,71.93
2017-06-14T04:48:45.636Z,71.36
2017-06-14T04:49:11.112Z,71.45
2017-06-14T04:49:36.567Z,71.55
2017-06-14T04:50:02.036Z,71.36
2017-06-14T04:50:27.502Z,71.26
2017-06-14T04:50:52.946Z,70.68
2017-06-14T04:51:18.397Z,70.87
2017-06-14T04:51:43.874Z,70.78
2017-06-14T04:52:09.358Z,70.4
2017-06-14T04:52:34.848Z,70.34
2017-06-14T04:53:00.340Z,70.11
2017-06-14T04:53:25.811Z,70.43
2017-06-14T04:53:51.257Z,69.76
2017-06-14T04:54:16.739Z,70.15
2017-06-14T04:54:42.223Z,70.24
2017-06-14T04:55:07.697Z,70.15
2017-06-14T04:55:33.197Z,69.57
2017-06-14T04:55:58.667Z,69.57
2017-06-14T04:56:24.127Z,69.67
2017-06-14T04:56:49.609Z,69.57
2017-06-14T04:57:15.069Z,69.95
2017-06-14T04:57:40.517Z,69.19
2017-06-14T04:58:05.990Z,69.38
2017-06-14T04:58:31.461Z,69.38
2017-06-14T04:58:56.981Z,69.38
2017-06-14T04:59:22.455Z,69.48
2017-06-14T04:59:47.920Z,69.48
2017-06-14T05:00:13.373Z,69.29
2017-06-14T05:00:38.869Z,69.67
2017-06-14T05:01:04.344Z,69.67
2017-06-14T05:01:29.830Z,69.29
2017-06-14T05:01:55.303Z,69
2017-06-14T05:02:20.787Z,69.19
2017-06-14T05:02:46.272Z,69.09
2017-06-14T05:03:11.715Z,69.29
2017-06-14T05:03:37.202Z,69.19
2017-06-14T05:04:02.654Z,69.32
2017-06-14T05:04:28.132Z,68.9
2017-06-14T05:04:53.601Z,68.94
2017-06-14T05:05:19.066Z,68.74
2017-06-14T05:05:44.560Z,68.9
2017-06-14T05:06:10.044Z,69.03
2017-06-14T05:06:35.529Z,68.55
2017-06-14T05:07:01.012Z,68.46
2017-06-14T05:07:26.469Z,68.55
2017-06-14T05:07:51.924Z,68.74
2017-06-14T05:08:17.431Z,68.46
2017-06-14T05:08:42.894Z,68.55
2017-06-14T05:09:08.389Z,68.46
2017-06-14T05:09:33.856Z,68.27
2017-06-14T05:09:59.332Z,68.46
2017-06-14T05:10:24.839Z,68.07
2017-06-14T05:10:50.300Z,68.17
2017-06-14T05:11:15.781Z,68.07
2017-06-14T05:11:41.260Z,68.36
2017-06-14T05:12:06.730Z,68.17
2017-06-14T05:12:32.211Z,67.82
2017-06-14T05:12:57.701Z,67.44
2017-06-14T05:13:23.193Z,67.69
2017-06-14T05:13:48.667Z,67.54
2017-06-14T05:14:14.130Z,67.44
2017-06-14T05:14:39.601Z,67.82
2017-06-14T05:15:05.062Z,67.72
2017-06-14T05:15:30.558Z,67.72
2017-06-14T05:15:56.033Z,67.91
2017-06-14T05:16:21.473Z,67.34
2017-06-14T05:16:46.984Z,67.25
2017-06-14T05:17:12.481Z,67.34
2017-06-14T05:17:37.962Z,67.72
2017-06-14T05:18:03.453Z,67.54
2017-06-14T05:18:28.937Z,67.63
2017-06-14T05:18:54.405Z,66.96
2017-06-14T05:19:19.858Z,67.05
2017-06-14T05:19:45.335Z,67.15
2017-06-14T05:20:10.823Z,67.15
2017-06-14T05:20:36.304Z,66.96
2017-06-14T05:21:01.803Z,67.09
2017-06-14T05:21:27.281Z,67.05
2017-06-14T05:21:52.768Z,66.86
2017-06-14T05:22:18.250Z,66.61
2017-06-14T05:22:43.748Z,66.61
2017-06-14T05:23:09.232Z,66.61
2017-06-14T05:23:34.724Z,66.51
2017-06-14T05:24:00.226Z,66.51
2017-06-14T05:24:25.740Z,66.42
2017-06-14T05:24:51.215Z,65.94
2017-06-14T05:25:16.656Z,66.03
2017-06-14T05:25:42.115Z,65.75
2017-06-14T05:26:07.592Z,65.75
2017-06-14T05:26:33.060Z,65.94
2017-06-14T05:26:58.531Z,66.03
2017-06-14T05:27:23.993Z,65.75
2017-06-14T05:27:49.465Z,65.94
2017-06-14T05:28:14.929Z,65.65
2017-06-14T05:28:40.418Z,65.94
2017-06-14T05:29:05.878Z,66.22
2017-06-14T05:29:31.408Z,65.84
2017-06-14T05:29:56.878Z,65.75
2017-06-14T05:30:22.340Z,65.84
2017-06-14T05:30:47.821Z,65.94
2017-06-14T05:31:13.285Z,65.88
2017-06-14T05:31:38.774Z,65.49
2017-06-14T05:32:04.249Z,65.59
2017-06-14T05:32:29.735Z,65.59
2017-06-14T05:32:55.242Z,65.68
2017-06-14T05:33:20.707Z,65.49
2017-06-14T05:33:46.184Z,65.49
2017-06-14T05:34:11.646Z,65.11
2017-06-14T05:34:37.126Z,65.11
2017-06-14T05:35:02.592Z,65.11
2017-06-14T05:35:28.096Z,64.63
2017-06-14T05:35:53.602Z,64.43
2017-06-14T05:36:19.043Z,64.63
2017-06-14T05:36:44.508Z,64.43
2017-06-14T05:37:09.979Z,64.15
2017-06-14T05:37:35.476Z,63.86
2017-06-14T05:38:00.960Z,64.05
2017-06-14T05:38:26.436Z,64.05
2017-06-14T05:38:51.902Z,63.96
2017-06-14T05:39:17.378Z,63.76
2017-06-14T05:39:42.828Z,63.38
2017-06-14T05:40:08.276Z,63.67
2017-06-14T05:40:33.721Z,63.7
2017-06-14T05:40:59.200Z,63.51
2017-06-14T05:41:24.679Z,63.6
2017-06-14T05:41:50.140Z,63.6
2017-06-14T05:42:15.624Z,63.7
2017-06-14T05:42:41.093Z,63.51
2017-06-14T05:43:06.537Z,63.51
2017-06-14T05:43:32.038Z,63.6
2017-06-14T05:43:57.515Z,63.7
2017-06-14T05:44:22.980Z,63.79
2017-06-14T05:44:48.485Z,63.6
2017-06-14T05:45:13.969Z,63.7
2017-06-14T05:45:39.459Z,63.6
2017-06-14T05:46:04.948Z,63.32
2017-06-14T05:46:30.433Z,63.32
2017-06-14T05:46:55.909Z,62.93
2017-06-14T05:47:21.385Z,62.93
2017-06-14T05:47:46.854Z,62.74
2017-06-14T05:48:12.298Z,63.16
2017-06-14T05:48:37.778Z,62.68
2017-06-14T05:49:03.226Z,62.77
2017-06-14T05:49:28.684Z,62.77
2017-06-14T05:49:54.143Z,62.77
2017-06-14T05:50:19.628Z,62.39
2017-06-14T05:50:45.117Z,62.19
2017-06-14T05:51:10.591Z,62.29
2017-06-14T05:51:36.062Z,62.19
2017-06-14T05:52:01.525Z,62.01
2017-06-14T05:52:27.015Z,62.19
2017-06-14T05:52:52.483Z,62.01
2017-06-14T05:53:17.942Z,62.01
2017-06-14T05:53:43.425Z,62.01
2017-06-14T05:54:08.913Z,61.91
2017-06-14T05:54:34.373Z,61.52
2017-06-14T05:54:59.841Z,61.62
2017-06-14T05:55:25.364Z,61.52
2017-06-14T05:55:50.824Z,61.43
2017-06-14T05:56:16.302Z,61.52
2017-06-14T05:56:41.769Z,61.52
2017-06-14T05:57:07.231Z,61.43
2017-06-14T05:57:32.695Z,61.43
2017-06-14T05:57:58.164Z,61.72
2017-06-14T05:58:23.659Z,61.62
2017-06-14T05:58:49.119Z,61.94
2017-06-14T05:59:14.612Z,61.84
2017-06-14T05:59:40.087Z,61.27
2017-06-14T06:00:05.579Z,61.17
2017-06-14T06:00:31.057Z,61.75
2017-06-14T06:00:56.526Z,61.17
2017-06-14T06:01:22.003Z,61.46
2017-06-14T06:01:47.459Z,61.08
2017-06-14T06:02:12.926Z,60.5
2017-06-14T06:02:38.436Z,60.69
2017-06-14T06:03:03.887Z,60.5
2017-06-14T06:03:29.386Z,60.6
2017-06-14T06:03:54.857Z,60.5
2017-06-14T06:04:20.320Z,60.78
2017-06-14T06:04:45.821Z,60.4
2017-06-14T06:05:11.263Z,60.6
2017-06-14T06:05:36.749Z,60.6
2017-06-14T06:06:02.232Z,60.4
2017-06-14T06:06:27.692Z,60.6
2017-06-14T06:06:53.167Z,60.31
2017-06-14T06:07:18.663Z,60.78
2017-06-14T06:07:44.152Z,60.21
2017-06-14T06:08:09.663Z,60.34
2017-06-14T06:08:35.151Z,60.34
2017-06-14T06:09:00.637Z,59.76
2017-06-14T06:09:26.112Z,60.02
2017-06-14T06:09:51.577Z,59.64
2017-06-14T06:10:17.048Z,59.86
2017-06-14T06:10:42.551Z,59.76
2017-06-14T06:11:08.043Z,59.47
2017-06-14T06:11:33.518Z,59.38
2017-06-14T06:11:59.006Z,59.38
2017-06-14T06:12:24.481Z,59.28
2017-06-14T06:12:49.957Z,59.28
2017-06-14T06:13:15.458Z,59.19
2017-06-14T06:13:40.932Z,58.99
2017-06-14T06:14:06.405Z,58.89
2017-06-14T06:14:31.866Z,58.89
2017-06-14T06:14:57.357Z,58.89
2017-06-14T06:15:22.844Z,58.89
2017-06-14T06:15:48.326Z,58.89
2017-06-14T06:16:13.851Z,58.61
2017-06-14T06:16:39.327Z,58.51
2017-06-14T06:17:04.814Z,58.89
2017-06-14T06:17:30.304Z,58.22
2017-06-14T06:17:55.789Z,57.65
2017-06-14T06:18:21.262Z,57.68
2017-06-14T06:18:46.715Z,57.84
2017-06-14T06:19:12.169Z,58.03
2017-06-14T06:19:37.609Z,57.75
2017-06-14T06:20:03.125Z,58.22
2017-06-14T06:20:28.604Z,58.15
2017-06-14T06:20:54.094Z,58.13
2017-06-14T06:21:19.575Z,58.42
2017-06-14T06:21:45.016Z,57.75
2017-06-14T06:22:10.480Z,58.06
2017-06-14T06:22:35.954Z,58.06
2017-06-14T06:23:01.438Z,57.39
2017-06-14T06:23:26.868Z,57.29
2017-06-14T06:23:52.364Z,57
2017-06-14T06:24:17.843Z,56.62
2017-06-14T06:24:43.317Z,56.91
2017-06-14T06:25:08.822Z,56.71
2017-06-14T06:25:34.295Z,56.62
2017-06-14T06:25:59.775Z,56.43
2017-06-14T06:26:25.247Z,56.52
2017-06-14T06:26:50.736Z,56.52
2017-06-14T06:27:16.253Z,56.62
2017-06-14T06:27:41.743Z,56.81
2017-06-14T06:28:07.224Z,56.43
2017-06-14T06:28:32.693Z,56.23
2017-06-14T06:29:30.694Z,56.04
2017-06-14T06:29:56.161Z,56.23
2017-06-14T06:30:21.651Z,56.33
2017-06-14T06:30:47.118Z,56.62
2017-06-14T06:31:12.600Z,56.71
2017-06-14T06:31:38.065Z,56.52
2017-06-14T06:32:03.552Z,56.23
2017-06-14T06:32:28.981Z,56.04
2017-06-14T06:32:54.476Z,56.52
2017-06-14T06:33:19.935Z,56.62
2017-06-14T06:33:45.394Z,56.71
2017-06-14T06:34:10.905Z,56.71
2017-06-14T06:34:36.407Z,56.62
2017-06-14T06:35:01.882Z,56.33
2017-06-14T06:35:27.348Z,56.52
2017-06-14T06:35:52.819Z,56.14
2017-06-14T06:36:18.290Z,56.23
2017-06-14T06:36:43.797Z,56.07
2017-06-14T06:37:09.301Z,56.26
2017-06-14T06:37:34.766Z,56.16
2017-06-14T06:38:00.237Z,56.07
2017-06-14T06:38:25.697Z,55.98
2017-06-14T06:38:51.157Z,56.16
2017-06-14T06:39:16.646Z,55.88
2017-06-14T06:39:42.114Z,55.78
2017-06-14T06:40:07.571Z,55.49
2017-06-14T06:40:33.026Z,55.68
2017-06-14T06:40:58.510Z,55.49
2017-06-14T06:41:23.982Z,54.91
2017-06-14T06:41:49.500Z,55.3
2017-06-14T06:42:14.973Z,54.43
2017-06-14T06:42:40.412Z,54.34
2017-06-14T06:43:05.889Z,54.27
2017-06-14T06:43:31.361Z,54.36
2017-06-14T06:43:56.843Z,54.14
2017-06-14T06:44:22.296Z,54.36
2017-06-14T06:44:47.739Z,53.78
2017-06-14T06:45:13.230Z,54.05
2017-06-14T06:45:38.715Z,53.69
2017-06-14T06:46:04.214Z,53.57
2017-06-14T06:46:29.680Z,53.31
2017-06-14T06:46:55.152Z,52.89
2017-06-14T06:47:20.638Z,52.63
2017-06-14T06:47:46.078Z,53.09
2017-06-14T06:48:11.570Z,53.19
2017-06-14T06:48:37.031Z,52.99
2017-06-14T06:49:02.515Z,53.69
2017-06-14T06:49:28.018Z,53.5
2017-06-14T06:49:53.506Z,53.5
2017-06-14T06:50:18.978Z,53.5
2017-06-14T06:50:44.466Z,53.5
2017-06-14T06:51:09.959Z,53.5
2017-06-14T06:51:35.416Z,53.5
2017-06-14T06:52:00.856Z,53.69
2017-06-14T06:52:26.346Z,53.31
2017-06-14T06:52:51.822Z,53.31
2017-06-14T06:53:17.304Z,53.4
2017-06-14T06:53:42.754Z,53.4
2017-06-14T06:54:08.249Z,52.92
2017-06-14T06:54:33.743Z,53.02
2017-06-14T06:54:59.247Z,52.34
2017-06-14T06:55:24.720Z,51.89
2017-06-14T06:55:50.166Z,52.06
2017-06-14T06:56:15.619Z,52.06
2017-06-14T06:56:41.073Z,51.98
2017-06-14T06:57:06.555Z,51.89
2017-06-14T06:57:32.009Z,52.08
2017-06-14T06:57:57.502Z,51.79
2017-06-14T06:58:22.984Z,51.89
2017-06-14T06:58:48.463Z,51.5
2017-06-14T06:59:13.940Z,51.31
2017-06-14T06:59:39.405Z,51.21
2017-06-14T07:00:04.863Z,51.12
2017-06-14T07:00:30.314Z,51.7
2017-06-14T07:00:55.781Z,51.41
2017-06-14T07:01:21.245Z,51.41
2017-06-14T07:01:46.745Z,51.31
2017-06-14T07:02:12.211Z,51.41
2017-06-14T07:02:37.764Z,51.5
2017-06-14T07:03:03.192Z,51.41
2017-06-14T07:03:28.681Z,51.5
2017-06-14T07:03:54.168Z,51.12
2017-06-14T07:04:19.657Z,50.83
2017-06-14T07:04:45.089Z,51.02
2017-06-14T07:05:10.567Z,50.93
2017-06-14T07:05:36.038Z,50.83
2017-06-14T07:06:01.485Z,50.83
2017-06-14T07:06:27.002Z,50.37
2017-06-14T07:06:52.452Z,50.27
2017-06-14T07:07:17.940Z,50.37
2017-06-14T07:07:43.425Z,50.27
2017-06-14T07:08:08.902Z,50.27
2017-06-14T07:08:34.388Z,49.99
2017-06-14T07:08:59.906Z,50.09
2017-06-14T07:09:31.300Z,49.6
2017-06-14T07:09:56.756Z,50.09
2017-06-14T07:10:22.232Z,49.89
2017-06-14T07:10:47.696Z,50.09
2017-06-14T07:11:13.154Z,50.09
2017-06-14T07:11:38.642Z,49.99
2017-06-14T07:12:04.094Z,49.99
2017-06-14T07:12:29.551Z,49.7
2017-06-14T07:12:55.048Z,49.99
2017-06-14T07:13:20.513Z,49.79
2017-06-14T07:13:45.997Z,49.99
2017-06-14T07:14:11.477Z,49.99
2017-06-14T07:14:36.935Z,49.22
2017-06-14T07:15:02.412Z,49.22
2017-06-14T07:15:27.908Z,49.32
2017-06-14T07:15:53.382Z,49.02
2017-06-14T07:16:18.851Z,49.32
2017-06-14T07:16:44.335Z,48.74
2017-06-14T07:17:09.807Z,48.66
2017-06-14T07:17:35.390Z,48.95
2017-06-14T07:18:00.834Z,48.74
2017-06-14T07:18:26.303Z,48.47
2017-06-14T07:18:51.773Z,48.57
2017-06-14T07:19:17.260Z,48.18
2017-06-14T07:19:42.745Z,47.99
2017-06-14T07:20:08.207Z,48.66
2017-06-14T07:20:33.695Z,48.57
2017-06-14T07:20:59.192Z,47.89
2017-06-14T07:21:24.656Z,47.89
2017-06-14T07:21:50.119Z,47.89
2017-06-14T07:22:15.615Z,47.89
2017-06-14T07:22:41.093Z,46.83
2017-06-14T07:23:06.594Z,46.35
2017-06-14T07:23:32.092Z,46.55
2017-06-14T07:23:57.584Z,46.14
2017-06-14T07:24:23.053Z,46.14
2017-06-14T07:24:48.539Z,46.81
2017-06-14T07:25:14.065Z,46.91
2017-06-14T07:25:39.536Z,47.58
2017-06-14T07:26:04.989Z,47.29
2017-06-14T07:26:30.481Z,47.67
2017-06-14T07:26:55.920Z,47.58
2017-06-14T07:27:21.401Z,48.06
2017-06-14T07:27:46.875Z,48.06
2017-06-14T07:28:12.358Z,48.54
2017-06-14T07:28:37.829Z,48.74
2017-06-14T07:29:03.331Z,48.44
2017-06-14T07:29:28.789Z,48.25
2017-06-14T07:29:54.317Z,47.97
2017-06-14T07:30:19.769Z,47.39
2017-06-14T07:30:45.225Z,47
2017-06-14T07:31:10.722Z,46.81
2017-06-14T07:31:36.211Z,46.62
2017-06-14T07:32:01.679Z,46.52
2017-06-14T07:32:27.140Z,46.64
2017-06-14T07:32:52.587Z,46.83
2017-06-14T07:33:18.074Z,46.73
2017-06-14T07:34:10.995Z,47.03
2017-06-14T07:34:36.476Z,46.83
2017-06-14T07:35:01.949Z,46.93
2017-06-14T07:35:27.404Z,46.83
2017-06-14T07:35:52.881Z,46.93
2017-06-14T07:36:18.382Z,46.55
2017-06-14T07:36:43.880Z,46.45
2017-06-14T07:37:09.335Z,46.64
2017-06-14T07:37:34.804Z,47.03
2017-06-14T07:38:00.297Z,47.03
2017-06-14T07:38:25.768Z,46.83
2017-06-14T07:38:51.235Z,46.83
2017-06-14T07:39:16.702Z,46.45
2017-06-14T07:39:42.194Z,46.18
2017-06-14T07:40:07.659Z,46.47
2017-06-14T07:40:33.122Z,46.18
2017-06-14T07:40:58.616Z,46.28
2017-06-14T07:41:24.074Z,46.08
2017-06-14T07:41:49.544Z,46.08
2017-06-14T07:42:14.979Z,46.18
2017-06-14T07:42:40.470Z,45.89
2017-06-14T07:43:05.967Z,45.79
2017-06-14T07:43:31.431Z,45.7
2017-06-14T07:43:56.891Z,45.7
2017-06-14T07:44:22.340Z,45.12
2017-06-14T07:44:47.835Z,44.83
2017-06-14T07:45:13.326Z,44.93
2017-06-14T07:45:38.820Z,44.93
2017-06-14T07:46:04.300Z,44.95
2017-06-14T07:46:29.783Z,44.93
2017-06-14T07:46:55.262Z,44.64
2017-06-14T07:47:20.736Z,44.93
2017-06-14T07:47:46.232Z,45.03
2017-06-14T07:48:11.705Z,45.12
2017-06-14T07:48:37.188Z,45.12
2017-06-14T07:49:02.660Z,44.93
2017-06-14T07:49:28.148Z,45.14
2017-06-14T07:49:53.623Z,45.04
2017-06-14T07:50:19.111Z,44.95
2017-06-14T07:50:44.597Z,45.43
2017-06-14T07:51:10.043Z,45.04
2017-06-14T07:51:35.546Z,45.04
2017-06-14T07:52:01.014Z,44.76
2017-06-14T07:52:26.481Z,44.37
2017-06-14T07:52:51.967Z,44.66
2017-06-14T07:53:17.483Z,44.56
2017-06-14T07:53:42.925Z,44.56
2017-06-14T07:54:08.373Z,44.66
2017-06-14T07:54:33.869Z,44.27
2017-06-14T07:54:59.354Z,44.66
2017-06-14T07:55:24.854Z,44.76
2017-06-14T07:55:50.350Z,44.78
2017-06-14T07:56:15.818Z,44.39
2017-06-14T07:56:41.320Z,44.59
2017-06-14T07:57:06.789Z,44.49
2017-06-14T07:57:32.255Z,44.1
2017-06-14T07:57:57.755Z,43.91
2017-06-14T07:58:23.258Z,43.52
2017-06-14T07:58:48.741Z,43.81
2017-06-14T07:59:14.204Z,43.72
2017-06-14T07:59:39.698Z,43.72
2017-06-14T08:00:05.174Z,43.81
2017-06-14T08:00:30.655Z,43.64
2017-06-14T08:00:56.137Z,43.45
2017-06-14T08:01:21.622Z,43.45
2017-06-14T08:01:47.134Z,43.35
2017-06-14T08:02:12.607Z,43.54
2017-06-14T08:02:38.086Z,43.06
2017-06-14T08:03:03.563Z,42.87
2017-06-14T08:03:29.027Z,42.58
2017-06-14T08:03:54.509Z,43.16
2017-06-14T08:04:20.012Z,42.97
2017-06-14T08:04:45.493Z,42.97
2017-06-14T08:05:10.968Z,43.06
2017-06-14T08:05:36.415Z,43.24
2017-06-14T08:06:01.891Z,42.77
2017-06-14T08:06:27.374Z,43.04
2017-06-14T08:06:52.880Z,42.66
2017-06-14T08:07:18.361Z,42.66
2017-06-14T08:07:43.803Z,42.66
2017-06-14T08:08:09.275Z,42.94
2017-06-14T08:08:34.782Z,43.04
2017-06-14T08:09:00.275Z,42.85
2017-06-14T08:09:25.771Z,43.04
2017-06-14T08:09:51.219Z,42.75
2017-06-14T08:10:16.690Z,42.94
2017-06-14T08:10:42.193Z,42.75
2017-06-14T08:11:07.681Z,42.85
2017-06-14T08:11:33.163Z,42.66
2017-06-14T08:11:58.627Z,42.94
2017-06-14T08:12:24.102Z,42.85
2017-06-14T08:12:49.562Z,43.04
2017-06-14T08:13:15.049Z,42.75
2017-06-14T08:13:40.511Z,43.24
2017-06-14T08:14:05.958Z,43.14
2017-06-14T08:14:31.415Z,42.85
2017-06-14T08:14:56.884Z,42.94
2017-06-14T08:15:22.360Z,43.14
2017-06-14T08:15:47.802Z,42.85
2017-06-14T08:16:13.293Z,42.94
2017-06-14T08:16:38.749Z,42.87
2017-06-14T08:17:04.243Z,42.87
2017-06-14T08:17:29.724Z,42.68
2017-06-14T08:17:55.171Z,42.77
2017-06-14T08:18:20.630Z,42.77
2017-06-14T08:18:46.109Z,42.87
2017-06-14T08:19:11.585Z,42.87
2017-06-14T08:19:37.059Z,42.77
2017-06-14T08:20:02.538Z,42.58
2017-06-14T08:20:28.026Z,42.48
2017-06-14T08:20:53.517Z,42.77
2017-06-14T08:21:19.010Z,42.29
2017-06-14T08:21:44.495Z,42.1
2017-06-14T08:22:09.955Z,42.1
2017-06-14T08:22:35.442Z,42.48
2017-06-14T08:23:00.896Z,42.39
2017-06-14T08:23:26.387Z,42.77
2017-06-14T08:23:51.893Z,42.58
2017-06-14T08:24:17.395Z,42.12
2017-06-14T08:24:42.877Z,41.63
2017-06-14T08:25:08.338Z,41.73
2017-06-14T08:25:33.809Z,41.83
2017-06-14T08:25:59.331Z,42.02
2017-06-14T08:26:24.818Z,41.93
2017-06-14T08:26:50.301Z,41.54
2017-06-14T08:27:15.794Z,41.54
2017-06-14T08:27:41.269Z,41.73
2017-06-14T08:28:06.764Z,41.83
2017-06-14T08:28:32.250Z,41.83
2017-06-14T08:28:57.728Z,41.93
2017-06-14T08:29:23.213Z,41.63
2017-06-14T08:29:48.678Z,41.44
2017-06-14T08:30:14.182Z,41.44
2017-06-14T08:30:39.649Z,41.54
2017-06-14T08:31:05.146Z,41.63
2017-06-14T08:31:30.613Z,41.73
2017-06-14T08:31:56.099Z,41.83
2017-06-14T08:32:21.576Z,41.73
2017-06-14T08:32:47.038Z,41.73
2017-06-14T08:33:12.517Z,41.54
2017-06-14T08:33:37.983Z,41.83
2017-06-14T08:34:03.467Z,41.73
2017-06-14T08:34:28.945Z,41.83
2017-06-14T08:34:54.425Z,41.93
2017-06-14T08:35:19.915Z,41.73
2017-06-14T08:35:45.409Z,41.52
2017-06-14T08:36:10.884Z,41.52
2017-06-14T08:36:36.357Z,41.15
2017-06-14T08:37:01.837Z,41.13
2017-06-14T08:37:27.324Z,41.25
2017-06-14T08:37:52.838Z,41.25
2017-06-14T08:38:18.298Z,40.96
2017-06-14T08:38:43.759Z,41.25
2017-06-14T08:39:09.213Z,40.96
2017-06-14T08:39:34.717Z,41.15
2017-06-14T08:40:00.188Z,41.05
2017-06-14T08:40:25.667Z,40.86
2017-06-14T08:40:51.138Z,40.57
2017-06-14T08:41:16.609Z,40.38
2017-06-14T08:41:42.073Z,40.09
2017-06-14T08:42:07.542Z,40.09
2017-06-14T08:42:33.035Z,40.19
2017-06-14T08:42:58.519Z,39.8
2017-06-14T08:43:24.000Z,39.9
2017-06-14T08:43:49.459Z,39.7
2017-06-14T08:44:14.953Z,39.99
2017-06-14T08:44:40.471Z,39.8
2017-06-14T08:45:05.962Z,39.99
2017-06-14T08:45:31.431Z,40.09
2017-06-14T08:45:56.908Z,40.38
2017-06-14T08:46:22.388Z,40.57
2017-06-14T08:46:47.857Z,40.67
2017-06-14T08:47:13.333Z,40.78
2017-06-14T08:47:38.811Z,40.57
2017-06-14T08:48:04.300Z,40.5
2017-06-14T08:49:12.528Z,40.59
2017-06-14T08:49:37.995Z,40.5
2017-06-14T08:50:03.467Z,40.2
2017-06-14T08:50:28.949Z,40.98
2017-06-14T08:50:54.427Z,40.59
2017-06-14T08:51:19.903Z,40.78
2017-06-14T08:51:45.396Z,40.98
2017-06-14T08:52:10.875Z,40.98
2017-06-14T08:52:36.351Z,40.78
2017-06-14T08:53:01.832Z,40.88
2017-06-14T08:53:27.318Z,40.3
2017-06-14T08:53:52.811Z,40.3
2017-06-14T08:54:18.283Z,40.01
2017-06-14T08:54:43.744Z,39.53
2017-06-14T08:55:09.223Z,39.24
2017-06-14T08:55:34.708Z,39.34
2017-06-14T08:56:00.171Z,39.24
2017-06-14T08:56:25.617Z,39.41
2017-06-14T08:56:51.105Z,39.41
2017-06-14T08:57:16.570Z,39.8
2017-06-14T08:57:42.037Z,39.7
2017-06-14T08:58:07.526Z,39.8
2017-06-14T08:58:33.026Z,40.09
2017-06-14T08:58:58.513Z,39.7
2017-06-14T08:59:24.015Z,39.8
2017-06-14T08:59:49.483Z,39.8
2017-06-14T09:00:14.969Z,39.7
2017-06-14T09:00:40.443Z,39.61
2017-06-14T09:01:05.915Z,39.7
2017-06-14T09:01:31.396Z,39.61
2017-06-14T09:01:56.877Z,39.72
2017-06-14T09:02:22.333Z,39.8
2017-06-14T09:02:47.826Z,39.9
2017-06-14T09:03:13.302Z,40.2
2017-06-14T09:03:38.773Z,40.01
2017-06-14T09:04:04.247Z,40.11
2017-06-14T09:04:29.741Z,40.2
2017-06-14T09:04:55.232Z,39.92
2017-06-14T09:05:20.692Z,40.11
2017-06-14T09:05:46.203Z,39.62
2017-06-14T09:06:11.703Z,39.53
2017-06-14T09:06:37.184Z,39.72
2017-06-14T09:07:02.665Z,39.53
2017-06-14T09:07:28.151Z,39.43
2017-06-14T09:07:53.617Z,39.43
2017-06-14T09:08:19.116Z,39.72
2017-06-14T09:08:44.574Z,39.34
2017-06-14T09:09:10.047Z,39.04
2017-06-14T09:09:35.550Z,39.14
2017-06-14T09:10:01.018Z,38.85
2017-06-14T09:10:26.490Z,38.95
2017-06-14T09:10:51.962Z,38.46
2017-06-14T09:11:17.426Z,38.25
2017-06-14T09:11:42.891Z,38.25
2017-06-14T09:12:08.353Z,38.83
2017-06-14T09:12:33.844Z,38.74
2017-06-14T09:12:59.304Z,38.45
2017-06-14T09:13:24.780Z,38.74
2017-06-14T09:13:50.265Z,38.64
2017-06-14T09:14:15.754Z,38.64
2017-06-14T09:14:41.237Z,38.93
2017-06-14T09:15:06.713Z,39.12
2017-06-14T09:15:32.204Z,39.22
2017-06-14T09:15:57.712Z,39.41
2017-06-14T09:16:23.224Z,39.12
2017-06-14T09:16:48.744Z,39.22
2017-06-14T09:17:14.201Z,39.32
2017-06-14T09:17:39.715Z,39.32
2017-06-14T09:18:05.178Z,39.32
2017-06-14T09:18:30.662Z,39.32
2017-06-14T09:18:56.160Z,39.32
2017-06-14T09:19:21.638Z,39.32
2017-06-14T09:19:47.130Z,39.32
2017-06-14T09:20:12.590Z,39.22
2017-06-14T09:20:38.055Z,39.22
2017-06-14T09:21:03.550Z,39.32
2017-06-14T09:21:29.023Z,39.32
2017-06-14T09:21:54.512Z,39.22
2017-06-14T09:22:19.997Z,39.22
2017-06-14T09:22:45.476Z,39.32
2017-06-14T09:23:10.946Z,39.41
2017-06-14T09:23:36.454Z,39.34
2017-06-14T09:24:01.934Z,39.22
2017-06-14T09:24:27.388Z,39.32
2017-06-14T09:24:52.837Z,39.34
2017-06-14T09:25:18.310Z,39.34
2017-06-14T09:25:43.790Z,39.24
2017-06-14T09:26:09.274Z,39.34
2017-06-14T09:26:34.771Z,39.34
2017-06-14T09:27:00.233Z,39.34
2017-06-14T09:27:25.715Z,39.34
2017-06-14T09:27:51.199Z,39.53
2017-06-14T09:28:16.653Z,39.82
2017-06-14T09:28:42.138Z,39.53
2017-06-14T09:29:07.621Z,39.62
2017-06-14T09:29:33.062Z,39.34
2017-06-14T09:29:58.559Z,39.34
2017-06-14T09:30:24.101Z,39.34
2017-06-14T09:30:49.563Z,39.24
2017-06-14T09:31:15.036Z,39.26
2017-06-14T09:31:40.527Z,39.43
2017-06-14T09:32:06.018Z,39.45
2017-06-14T09:32:31.503Z,39.45
2017-06-14T09:32:56.974Z,38.78
2017-06-14T09:33:22.444Z,38.68
2017-06-14T09:33:47.951Z,38.68
2017-06-14T09:34:13.457Z,38.48
2017-06-14T09:34:38.900Z,38.58
2017-06-14T09:35:04.386Z,38.78
2017-06-14T09:35:29.866Z,38.39
2017-06-14T09:35:55.350Z,38.2
2017-06-14T09:36:20.825Z,38.2
2017-06-14T09:36:46.295Z,38
2017-06-14T09:37:11.768Z,38.2
2017-06-14T09:37:37.269Z,38.29
2017-06-14T09:38:02.751Z,37.23
2017-06-14T09:38:28.220Z,37.23
2017-06-14T09:38:53.707Z,37.23
2017-06-14T09:39:19.183Z,37.3
2017-06-14T09:39:44.702Z,37.4
2017-06-14T09:40:10.200Z,37.3
2017-06-14T09:40:35.676Z,37.7
2017-06-14T09:41:01.161Z,37.7
2017-06-14T09:41:26.621Z,38.28
2017-06-14T09:41:52.085Z,37.88
2017-06-14T09:42:17.567Z,38.28
2017-06-14T09:42:43.062Z,38.46
2017-06-14T09:43:08.548Z,38.37
2017-06-14T09:43:34.052Z,38.46
2017-06-14T09:43:59.510Z,38.76
2017-06-14T09:44:25.003Z,38.76
2017-06-14T09:44:50.492Z,38.66
2017-06-14T09:45:15.969Z,38.95
2017-06-14T09:45:41.441Z,38.95
2017-06-14T09:46:06.928Z,38.97
2017-06-14T09:46:32.403Z,38.78
2017-06-14T09:46:57.895Z,38.68
2017-06-14T09:47:23.366Z,38.68
2017-06-14T09:47:48.861Z,38.68
2017-06-14T09:48:14.340Z,38.87
2017-06-14T09:48:39.789Z,38.39
2017-06-14T09:49:05.281Z,38.29
2017-06-14T09:49:30.770Z,38.2
2017-06-14T09:49:56.224Z,37.9
2017-06-14T09:50:21.716Z,38.29
2017-06-14T09:50:47.200Z,38.39
2017-06-14T09:51:12.663Z,38.39
2017-06-14T09:51:38.112Z,38.29
2017-06-14T09:52:03.602Z,37.81
2017-06-14T09:52:29.068Z,38.12
2017-06-14T09:52:54.565Z,38.5
2017-06-14T09:53:20.010Z,38.39
2017-06-14T09:53:45.502Z,38.1
2017-06-14T09:54:11.002Z,38.21
2017-06-14T09:54:36.478Z,38.41
2017-06-14T09:55:01.954Z,37.63
2017-06-14T09:55:27.418Z,37.34
2017-06-14T09:55:52.890Z,37.24
2017-06-14T09:56:18.365Z,37.24
2017-06-14T09:56:43.829Z,37.34
2017-06-14T09:57:09.300Z,36.86
2017-06-14T09:57:34.767Z,37.34
2017-06-14T09:58:00.252Z,37.54
2017-06-14T09:58:25.780Z,37.24
2017-06-14T09:58:51.247Z,37.44
2017-06-14T09:59:16.695Z,37.44
2017-06-14T09:59:42.182Z,37.34
2017-06-14T10:00:07.663Z,37.34
2017-06-14T10:00:33.139Z,37.54
2017-06-14T10:00:58.623Z,37.24
2017-06-14T10:01:24.074Z,36.96
2017-06-14T10:01:49.546Z,37.05
2017-06-14T10:02:15.015Z,36.86
2017-06-14T10:02:40.473Z,36.86
2017-06-14T10:03:05.956Z,37.05
2017-06-14T10:03:31.426Z,36.76
2017-06-14T10:03:56.893Z,37.54
2017-06-14T10:04:22.390Z,37.34
2017-06-14T10:04:47.883Z,37.15
2017-06-14T10:05:13.378Z,36.96
2017-06-14T10:05:38.852Z,37.24
2017-06-14T10:06:04.324Z,36.86
2017-06-14T10:06:29.811Z,37.24
2017-06-14T10:06:55.301Z,37.05
2017-06-14T10:07:20.787Z,36.76
2017-06-14T10:07:46.279Z,36.57
2017-06-14T10:08:11.762Z,36.08
2017-06-14T10:08:37.247Z,36.07
2017-06-14T10:09:02.732Z,36.55
2017-06-14T10:09:28.218Z,36.84
2017-06-14T10:09:53.737Z,36.94
2017-06-14T10:10:19.215Z,37.13
2017-06-14T10:10:44.692Z,37.04
2017-06-14T10:11:10.180Z,36.94
2017-06-14T10:11:35.641Z,37.04
2017-06-14T10:12:01.140Z,37.04
2017-06-14T10:12:26.645Z,37.32
2017-06-14T10:12:52.117Z,37.52
2017-06-14T10:13:17.619Z,37.42
2017-06-14T10:13:43.106Z,37.32
2017-06-14T10:14:08.563Z,37.23
2017-06-14T10:14:34.020Z,37.71
2017-06-14T10:14:59.486Z,37.81
2017-06-14T10:15:24.944Z,37.52
2017-06-14T10:15:50.394Z,37.81
2017-06-14T10:16:15.884Z,37.23
2017-06-14T10:16:41.353Z,37.42
2017-06-14T10:17:06.850Z,37.52